DECAM EDDM-LJPZ
Flight info
| Callsign | DECAM |
|---|---|
| Flight time | N/A |
| Altitude | 15000 |
| Route | TURBU DCT LOIJ DCT LOWZ DCT VILAK DCT LJAJ |
| Aircraft | SR22/L-SDGRY/S |
Departure
| Time | 2026-05-01 15:19 |
|---|---|
| Airport | Munich Airport (EDDM) |
Arrival
| Time | N/A |
|---|---|
| Airport | Portorož Airport (LJPZ) |
| Time | Latitude | Longitude | Altitude | Speed | Heading |
|---|---|---|---|---|---|
| 2026-05-01 14:49 | 48.35371 | 11.80366 | 1480 ft | 0 kts | 263° |
| 2026-05-01 15:09 | 48.35380 | 11.80355 | 1477 ft | 5 kts | 8° |
| 2026-05-01 15:09 | 48.35388 | 11.80405 | 1477 ft | 9 kts | 58° |
| 2026-05-01 15:09 | 48.35418 | 11.80337 | 1480 ft | 17 kts | 265° |
| 2026-05-01 15:10 | 48.35388 | 11.80186 | 1478 ft | 17 kts | 175° |
| 2026-05-01 15:10 | 48.35126 | 11.80225 | 1480 ft | 15 kts | 202° |
| 2026-05-01 15:10 | 48.35099 | 11.80069 | 1480 ft | 14 kts | 264° |
| 2026-05-01 15:11 | 48.35083 | 11.79858 | 1475 ft | 19 kts | 263° |
| 2026-05-01 15:11 | 48.35046 | 11.79526 | 1477 ft | 21 kts | 180° |
| 2026-05-01 15:11 | 48.34885 | 11.79553 | 1480 ft | 19 kts | 174° |
| 2026-05-01 15:12 | 48.34784 | 11.79459 | 1480 ft | 24 kts | 264° |
| 2026-05-01 15:12 | 48.34736 | 11.78837 | 1477 ft | 29 kts | 263° |
| 2026-05-01 15:12 | 48.34713 | 11.78538 | 1480 ft | 31 kts | 263° |
| 2026-05-01 15:13 | 48.34641 | 11.77616 | 1480 ft | 26 kts | 263° |
| 2026-05-01 15:14 | 48.34591 | 11.76959 | 1480 ft | 36 kts | 263° |
| 2026-05-01 15:14 | 48.34556 | 11.76695 | 1479 ft | 17 kts | 206° |
| 2026-05-01 15:14 | 48.34355 | 11.76924 | 1478 ft | 22 kts | 114° |
| 2026-05-01 15:15 | 48.34320 | 11.77044 | 1480 ft | 0 kts | 114° |
| 2026-05-01 15:18 | 48.34257 | 11.77296 | 1480 ft | 23 kts | 103° |
| 2026-05-01 15:18 | 48.34264 | 11.77649 | 1474 ft | 59 kts | 83° |
| 2026-05-01 15:19 | 48.34377 | 11.80500 | 2110 ft | 106 kts | 112° |
| 2026-05-01 15:19 | 48.32743 | 11.80799 | 2559 ft | 148 kts | 192° |
| 2026-05-01 15:19 | 48.31742 | 11.80294 | 2785 ft | 153 kts | 191° |
| 2026-05-01 15:20 | 48.29590 | 11.79332 | 2939 ft | 167 kts | 189° |
| 2026-05-01 15:20 | 48.28447 | 11.78976 | 2967 ft | 169 kts | 179° |
| 2026-05-01 15:20 | 48.27279 | 11.78903 | 3060 ft | 166 kts | 174° |
| 2026-05-01 15:21 | 48.26516 | 11.78963 | 3060 ft | 166 kts | 167° |
| 2026-05-01 15:21 | 48.25404 | 11.79435 | 3032 ft | 163 kts | 150° |
| 2026-05-01 15:21 | 48.24433 | 11.80259 | 3013 ft | 162 kts | 140° |
| 2026-05-01 15:21 | 48.23524 | 11.81250 | 3029 ft | 160 kts | 137° |
| 2026-05-01 15:22 | 48.21778 | 11.83312 | 3020 ft | 160 kts | 138° |
| 2026-05-01 15:22 | 48.20750 | 11.84008 | 3020 ft | 166 kts | 160° |
| 2026-05-01 15:22 | 48.19634 | 11.84379 | 3113 ft | 158 kts | 159° |
| 2026-05-01 15:23 | 48.18638 | 11.84747 | 3568 ft | 140 kts | 158° |
| 2026-05-01 15:23 | 48.17692 | 11.85116 | 3836 ft | 141 kts | 157° |
| 2026-05-01 15:23 | 48.16720 | 11.85480 | 3993 ft | 150 kts | 159° |
| 2026-05-01 15:23 | 48.15663 | 11.85868 | 3996 ft | 161 kts | 160° |
| 2026-05-01 15:24 | 48.14605 | 11.86255 | 4351 ft | 147 kts | 159° |
| 2026-05-01 15:24 | 48.13622 | 11.86626 | 4619 ft | 147 kts | 161° |
| 2026-05-01 15:24 | 48.12630 | 11.87004 | 4817 ft | 146 kts | 160° |
| 2026-05-01 15:24 | 48.11666 | 11.87362 | 5154 ft | 135 kts | 160° |
| 2026-05-01 15:25 | 48.10819 | 11.87684 | 5620 ft | 124 kts | 161° |
| 2026-05-01 15:25 | 48.09987 | 11.87999 | 6020 ft | 122 kts | 159° |
| 2026-05-01 15:25 | 48.09154 | 11.88318 | 6349 ft | 124 kts | 159° |
| 2026-05-01 15:25 | 48.08322 | 11.88622 | 6709 ft | 126 kts | 160° |
| 2026-05-01 15:26 | 48.07399 | 11.88963 | 6730 ft | 144 kts | 162° |
| 2026-05-01 15:26 | 48.06373 | 11.89337 | 6739 ft | 158 kts | 162° |
| 2026-05-01 15:26 | 48.05339 | 11.89706 | 7015 ft | 147 kts | 162° |
| 2026-05-01 15:26 | 48.04345 | 11.90083 | 7133 ft | 152 kts | 162° |
| 2026-05-01 15:27 | 48.03317 | 11.90470 | 7294 ft | 152 kts | 163° |
| 2026-05-01 15:27 | 48.02283 | 11.90854 | 7459 ft | 154 kts | 163° |
| 2026-05-01 15:27 | 48.01240 | 11.91243 | 7636 ft | 154 kts | 163° |
| 2026-05-01 15:28 | 47.99151 | 11.92018 | 7968 ft | 156 kts | 162° |
| 2026-05-01 15:28 | 47.98103 | 11.92410 | 8118 ft | 155 kts | 162° |
| 2026-05-01 15:28 | 47.97049 | 11.92799 | 8290 ft | 156 kts | 162° |
| 2026-05-01 15:29 | 47.94836 | 11.93618 | 8323 ft | 170 kts | 162° |
| 2026-05-01 15:29 | 47.93695 | 11.94040 | 8326 ft | 174 kts | 161° |
| 2026-05-01 15:29 | 47.91352 | 11.95061 | 8328 ft | 174 kts | 147° |
| 2026-05-01 15:30 | 47.89589 | 11.97241 | 8898 ft | 145 kts | 133° |
| 2026-05-01 15:31 | 47.86662 | 12.01021 | 10125 ft | 163 kts | 134° |
| 2026-05-01 15:31 | 47.84825 | 12.03330 | 10124 ft | 178 kts | 134° |
| 2026-05-01 15:32 | 47.82932 | 12.05750 | 10114 ft | 180 kts | 134° |
| 2026-05-01 15:32 | 47.81170 | 12.08010 | 10632 ft | 159 kts | 132° |
| 2026-05-01 15:33 | 47.78633 | 12.11265 | 11081 ft | 161 kts | 133° |
| 2026-05-01 15:34 | 47.76085 | 12.14526 | 11666 ft | 162 kts | 133° |